createdAt,value
2022-07-25T00:01:50.348Z,18.44
2022-07-25T00:04:17.750Z,18.42
2022-07-25T00:06:45.796Z,18.40
2022-07-25T00:09:12.662Z,18.41
2022-07-25T00:11:39.374Z,18.42
2022-07-25T00:14:06.983Z,18.40
2022-07-25T00:16:34.320Z,18.39
2022-07-25T00:19:01.279Z,18.35
2022-07-25T00:21:28.016Z,18.32
2022-07-25T00:23:54.701Z,18.28
2022-07-25T00:26:21.337Z,18.29
2022-07-25T00:28:48.147Z,18.29
2022-07-25T00:31:14.927Z,18.29
2022-07-25T00:33:41.619Z,18.31
2022-07-25T00:36:09.371Z,18.34
2022-07-25T00:38:36.217Z,18.33
2022-07-25T00:41:04.046Z,18.32
2022-07-25T00:43:30.879Z,18.31
2022-07-25T00:45:58.773Z,18.31
2022-07-25T00:48:27.351Z,18.30
2022-07-25T00:50:54.404Z,18.31
2022-07-25T00:53:21.567Z,18.31
2022-07-25T00:55:48.378Z,18.34
2022-07-25T00:58:15.049Z,18.36
2022-07-25T01:00:41.888Z,18.37
2022-07-25T01:03:08.579Z,18.38
2022-07-25T01:05:35.251Z,18.37
2022-07-25T01:08:02.780Z,18.39
2022-07-25T01:10:32.476Z,18.39
2022-07-25T01:12:59.184Z,18.40
2022-07-25T01:15:26.344Z,18.42
2022-07-25T01:17:53.238Z,18.42
2022-07-25T01:20:21.724Z,18.42
2022-07-25T01:22:49.177Z,18.41
2022-07-25T01:25:16.620Z,18.42
2022-07-25T01:27:43.747Z,18.46
2022-07-25T01:30:13.024Z,18.49
2022-07-25T01:32:40.119Z,18.52
2022-07-25T01:35:08.459Z,18.55
2022-07-25T01:37:35.688Z,18.59
2022-07-25T01:40:03.772Z,18.65
2022-07-25T01:42:30.486Z,18.68
2022-07-25T01:44:57.943Z,18.69
2022-07-25T01:47:24.675Z,18.72
2022-07-25T01:49:51.373Z,18.75
2022-07-25T01:52:18.515Z,18.81
2022-07-25T01:54:45.268Z,18.85
2022-07-25T01:57:11.956Z,18.84
2022-07-25T01:59:40.652Z,18.84
2022-07-25T02:02:09.155Z,18.88
2022-07-25T02:04:36.681Z,18.89
2022-07-25T02:07:04.366Z,18.88
2022-07-25T02:09:32.930Z,18.88
2022-07-25T02:11:59.663Z,18.90
2022-07-25T02:14:26.506Z,18.95
2022-07-25T02:16:53.874Z,18.96
2022-07-25T02:19:24.417Z,18.96
2022-07-25T02:21:51.273Z,18.96
2022-07-25T02:24:17.941Z,18.97
2022-07-25T02:26:44.584Z,18.96
2022-07-25T02:29:11.320Z,18.94
2022-07-25T02:31:37.932Z,18.96
2022-07-25T02:34:05.149Z,18.96
2022-07-25T02:36:32.090Z,18.96
2022-07-25T02:38:58.757Z,19.00
2022-07-25T02:41:25.424Z,19.00
2022-07-25T02:43:52.074Z,19.06
2022-07-25T02:46:18.829Z,19.08
2022-07-25T02:48:45.737Z,19.08
2022-07-25T02:51:12.525Z,19.05
2022-07-25T02:56:29.784Z,19.09
2022-07-25T02:58:57.350Z,19.13
2022-07-25T03:01:24.240Z,19.14
2022-07-25T03:03:51.042Z,19.14
2022-07-25T03:06:18.140Z,19.14
2022-07-25T03:08:44.771Z,19.12
2022-07-25T03:11:12.654Z,19.12
2022-07-25T03:13:39.343Z,19.13
2022-07-25T03:16:07.287Z,19.12
2022-07-25T03:18:34.113Z,19.15
2022-07-25T03:21:00.862Z,19.21
2022-07-25T03:23:28.335Z,19.24
2022-07-25T03:25:55.802Z,19.23
2022-07-25T03:28:23.222Z,19.26
2022-07-25T03:30:49.985Z,19.28
2022-07-25T03:33:16.634Z,19.28
2022-07-25T03:35:45.294Z,19.30
2022-07-25T03:38:11.944Z,19.33
2022-07-25T03:40:38.638Z,19.36
2022-07-25T03:43:05.574Z,19.34
2022-07-25T03:45:32.525Z,19.32
2022-07-25T03:47:59.264Z,19.33
2022-07-25T03:50:25.994Z,19.32
2022-07-25T03:52:52.597Z,19.32
2022-07-25T03:55:19.227Z,19.31
2022-07-25T03:57:45.876Z,19.29
2022-07-25T04:00:12.867Z,19.32
2022-07-25T04:02:39.982Z,19.34
2022-07-25T04:05:07.905Z,19.38
2022-07-25T04:07:34.963Z,19.38
2022-07-25T04:10:02.047Z,19.36
2022-07-25T04:12:28.817Z,19.39
2022-07-25T04:14:55.426Z,19.40
2022-07-25T04:17:22.230Z,19.41
2022-07-25T04:19:52.521Z,19.40
2022-07-25T04:22:19.504Z,19.44
2022-07-25T04:24:46.128Z,19.50
2022-07-25T04:27:12.824Z,19.59
2022-07-25T04:29:39.620Z,19.67
2022-07-25T04:32:06.618Z,19.75
2022-07-25T04:34:33.291Z,19.84
2022-07-25T04:37:00.085Z,19.88
2022-07-25T04:39:26.758Z,19.92
2022-07-25T04:41:53.360Z,19.94
2022-07-25T04:44:19.978Z,19.99
2022-07-25T04:46:46.582Z,19.99
2022-07-25T04:49:13.455Z,19.98
2022-07-25T04:51:40.210Z,20.05
2022-07-25T04:54:07.219Z,20.07
2022-07-25T04:56:33.977Z,20.12
2022-07-25T04:59:06.158Z,20.15
2022-07-25T05:01:34.042Z,20.20
2022-07-25T05:04:00.740Z,20.23
2022-07-25T05:06:27.373Z,20.28
2022-07-25T05:08:54.090Z,20.33
2022-07-25T05:11:20.811Z,20.40
2022-07-25T05:13:47.511Z,20.44
2022-07-25T05:16:14.442Z,20.48
2022-07-25T05:18:41.135Z,20.55
2022-07-25T05:21:12.666Z,20.65
2022-07-25T05:23:39.663Z,20.72
2022-07-25T05:26:06.323Z,20.74
2022-07-25T05:28:33.050Z,20.77
2022-07-25T05:30:59.689Z,20.82
2022-07-25T05:33:26.699Z,20.79
2022-07-25T05:35:53.538Z,20.82
2022-07-25T05:38:20.503Z,20.87
2022-07-25T05:40:48.071Z,20.94
2022-07-25T05:43:14.869Z,21.02
2022-07-25T05:45:41.563Z,21.09
2022-07-25T05:48:08.321Z,21.15
2022-07-25T05:50:36.951Z,21.25
2022-07-25T05:53:03.563Z,21.27
2022-07-25T05:55:30.120Z,21.35
2022-07-25T05:57:59.633Z,21.38
2022-07-25T06:00:29.401Z,21.39
2022-07-25T06:02:59.697Z,21.46
2022-07-25T06:05:26.623Z,21.50
2022-07-25T06:07:53.272Z,21.56
2022-07-25T06:10:20.483Z,21.65
2022-07-25T06:12:51.427Z,21.67
2022-07-25T06:15:23.123Z,21.71
2022-07-25T06:17:53.839Z,21.75
2022-07-25T06:20:20.833Z,21.81
2022-07-25T06:22:47.572Z,21.92
2022-07-25T06:25:15.020Z,22.11
2022-07-25T06:27:42.476Z,22.28
2022-07-25T06:30:19.146Z,22.43
2022-07-25T06:32:46.166Z,22.57
2022-07-25T06:35:12.781Z,22.67
2022-07-25T06:37:39.931Z,22.82
2022-07-25T06:40:08.145Z,22.91
2022-07-25T06:42:45.734Z,23.06
2022-07-25T06:45:13.865Z,23.07
2022-07-25T06:47:41.981Z,23.25
2022-07-25T06:50:12.023Z,23.19
2022-07-25T06:52:39.474Z,23.19
2022-07-25T06:55:07.840Z,23.41
2022-07-25T06:57:34.494Z,23.19
2022-07-25T07:00:01.313Z,23.32
2022-07-25T07:02:28.107Z,23.50
2022-07-25T07:04:54.728Z,23.52
2022-07-25T07:07:21.342Z,23.72
2022-07-25T07:09:47.987Z,23.67
2022-07-25T07:12:14.666Z,23.79
2022-07-25T07:14:41.944Z,23.91
2022-07-25T07:17:08.659Z,23.90
2022-07-25T07:19:35.324Z,23.94
2022-07-25T07:22:01.926Z,24.16
2022-07-25T07:24:28.903Z,24.22
2022-07-25T07:26:55.717Z,24.34
2022-07-25T07:29:22.368Z,24.59
2022-07-25T07:31:49.097Z,24.36
2022-07-25T07:34:16.481Z,24.76
2022-07-25T07:36:45.778Z,24.79
2022-07-25T07:39:12.449Z,24.82
2022-07-25T07:41:39.064Z,24.59
2022-07-25T07:44:05.962Z,24.60
2022-07-25T07:46:32.729Z,24.68
2022-07-25T07:48:59.481Z,25.02
2022-07-25T07:51:26.188Z,24.96
2022-07-25T07:54:11.393Z,24.92
2022-07-25T07:56:39.409Z,25.06
2022-07-25T07:59:06.317Z,24.65
2022-07-25T08:01:33.498Z,24.95
2022-07-25T08:04:00.235Z,25.20
2022-07-25T08:06:27.863Z,25.35
2022-07-25T08:08:54.599Z,25.51
2022-07-25T08:11:21.306Z,25.36
2022-07-25T08:13:48.053Z,25.60
2022-07-25T08:16:14.722Z,25.46
2022-07-25T08:18:41.733Z,25.72
2022-07-25T08:21:09.119Z,25.74
2022-07-25T08:23:38.616Z,25.91
2022-07-25T08:26:05.702Z,26.01
2022-07-25T08:28:32.561Z,26.17
2022-07-25T08:30:59.389Z,26.31
2022-07-25T08:33:26.815Z,26.40
2022-07-25T08:35:54.934Z,26.64
2022-07-25T08:38:22.960Z,26.56
2022-07-25T08:40:49.748Z,26.72
2022-07-25T08:43:17.829Z,26.53
2022-07-25T08:45:50.282Z,26.43
2022-07-25T08:48:19.070Z,26.75
2022-07-25T08:50:47.001Z,26.95
2022-07-25T08:53:32.754Z,26.78
2022-07-25T08:56:00.552Z,27.24
2022-07-25T08:58:27.212Z,26.54
2022-07-25T09:00:53.969Z,27.05
2022-07-25T09:03:20.693Z,27.22
2022-07-25T09:05:47.502Z,27.52
2022-07-25T09:08:17.417Z,27.45
2022-07-25T09:10:49.462Z,27.78
2022-07-25T09:13:16.749Z,27.89
2022-07-25T09:15:52.000Z,27.91
2022-07-25T09:18:23.370Z,28.13
2022-07-25T09:20:58.264Z,28.42
2022-07-25T09:23:30.791Z,28.48
2022-07-25T09:26:15.017Z,28.79
2022-07-25T09:28:47.498Z,28.80
2022-07-25T09:31:15.705Z,28.80
2022-07-25T09:33:59.795Z,28.61
2022-07-25T09:36:26.494Z,28.64
2022-07-25T09:38:53.588Z,28.95
2022-07-25T09:41:23.338Z,28.65
2022-07-25T09:43:50.347Z,28.65
2022-07-25T09:46:17.298Z,28.91
2022-07-25T09:48:45.248Z,28.37
2022-07-25T09:51:12.198Z,28.73
2022-07-25T09:53:40.387Z,29.11
2022-07-25T09:56:17.052Z,28.94
2022-07-25T09:58:43.737Z,29.11
2022-07-25T10:01:18.177Z,29.05
2022-07-25T10:03:50.864Z,29.07
2022-07-25T10:06:26.402Z,29.11
2022-07-25T10:08:54.066Z,29.03
2022-07-25T10:11:26.407Z,28.34
2022-07-25T10:13:54.628Z,28.92
2022-07-25T10:16:26.621Z,29.04
2022-07-25T10:18:58.197Z,29.30
2022-07-25T10:21:28.280Z,29.53
2022-07-25T10:24:05.213Z,29.40
2022-07-25T10:26:34.668Z,29.66
2022-07-25T10:29:02.254Z,29.62
2022-07-25T10:31:31.934Z,29.66
2022-07-25T10:34:01.718Z,29.66
2022-07-25T10:36:42.264Z,28.90
2022-07-25T10:39:11.607Z,29.16
2022-07-25T10:41:50.510Z,29.47
2022-07-25T10:44:17.361Z,29.68
2022-07-25T10:46:44.923Z,29.77
2022-07-25T10:49:31.704Z,29.53
2022-07-25T10:52:01.196Z,29.63
2022-07-25T10:54:36.892Z,29.70
2022-07-25T10:57:06.427Z,29.82
2022-07-25T10:59:38.551Z,29.79
2022-07-25T11:02:09.589Z,29.88
2022-07-25T11:04:36.824Z,29.82
2022-07-25T11:07:14.368Z,29.90
2022-07-25T11:09:42.940Z,29.97
2022-07-25T11:12:14.094Z,30.01
2022-07-25T11:14:42.786Z,30.07
2022-07-25T11:17:20.849Z,30.17
2022-07-25T11:20:04.192Z,30.07
2022-07-25T11:22:32.086Z,30.04
2022-07-25T11:25:00.038Z,30.09
2022-07-25T11:27:31.692Z,30.15
2022-07-25T11:30:14.081Z,30.03
2022-07-25T11:32:47.589Z,30.08
2022-07-25T11:35:14.836Z,30.11
2022-07-25T11:37:44.129Z,30.24
2022-07-25T11:40:11.181Z,29.60
2022-07-25T11:42:46.577Z,29.65
2022-07-25T11:45:37.134Z,29.89
2022-07-25T11:48:10.177Z,29.77
2022-07-25T11:50:40.265Z,29.71
2022-07-25T11:53:09.334Z,29.83
2022-07-25T11:55:40.268Z,29.85
2022-07-25T11:58:08.231Z,29.83
2022-07-25T12:00:39.817Z,29.90
2022-07-25T12:03:16.985Z,29.69
2022-07-25T12:05:47.014Z,29.63
2022-07-25T12:08:15.890Z,29.59
2022-07-25T12:10:44.063Z,29.72
2022-07-25T12:13:25.141Z,29.78
2022-07-25T12:15:52.819Z,29.84
2022-07-25T12:18:19.752Z,30.09
2022-07-25T12:20:46.430Z,30.08
2022-07-25T12:23:14.049Z,30.05
2022-07-25T12:25:45.745Z,30.07
2022-07-25T12:28:13.156Z,29.88
2022-07-25T12:30:42.829Z,29.90
2022-07-25T12:33:10.449Z,29.89
2022-07-25T12:35:39.941Z,29.86
2022-07-25T12:38:06.662Z,29.91
2022-07-25T12:40:33.726Z,29.98
2022-07-25T12:43:01.069Z,29.98
2022-07-25T12:45:27.941Z,29.89
2022-07-25T12:47:54.707Z,29.84
2022-07-25T12:50:21.669Z,29.86
2022-07-25T12:52:48.403Z,29.66
2022-07-25T12:55:17.311Z,29.70
2022-07-25T12:57:44.934Z,29.78
2022-07-25T13:00:14.445Z,29.93
2022-07-25T13:02:41.451Z,29.93
2022-07-25T13:05:08.333Z,29.97
2022-07-25T13:07:35.416Z,29.92
2022-07-25T13:10:03.731Z,29.84
2022-07-25T13:12:30.756Z,29.86
2022-07-25T13:14:57.865Z,29.71
2022-07-25T13:17:27.488Z,29.61
2022-07-25T13:19:55.456Z,29.51
2022-07-25T13:22:22.108Z,29.54
2022-07-25T13:24:48.733Z,29.50
2022-07-25T13:27:18.381Z,29.53
2022-07-25T13:29:45.090Z,29.71
2022-07-25T13:32:12.158Z,29.76
2022-07-25T13:34:41.387Z,29.69
2022-07-25T13:37:08.086Z,29.68
2022-07-25T13:39:35.672Z,29.62
2022-07-25T13:42:03.049Z,29.84
2022-07-25T13:44:29.667Z,29.71
2022-07-25T13:46:57.439Z,29.88
2022-07-25T13:49:25.020Z,29.86
2022-07-25T13:51:51.665Z,29.69
2022-07-25T13:54:18.402Z,30.01
2022-07-25T13:56:45.117Z,30.20
2022-07-25T13:59:17.301Z,30.36
2022-07-25T14:01:47.478Z,30.35
2022-07-25T14:04:14.342Z,30.30
2022-07-25T14:06:41.561Z,30.30
2022-07-25T14:09:08.744Z,30.14
2022-07-25T14:11:35.739Z,30.04
2022-07-25T14:14:02.399Z,29.98
2022-07-25T14:16:29.310Z,29.99
2022-07-25T14:18:56.221Z,29.82
2022-07-25T14:21:22.889Z,29.96
2022-07-25T14:23:49.594Z,29.95
2022-07-25T14:26:16.258Z,29.92
2022-07-25T14:28:43.600Z,29.88
2022-07-25T14:31:11.560Z,29.73
2022-07-25T14:33:40.029Z,29.55
2022-07-25T14:36:10.634Z,29.53
2022-07-25T14:38:37.283Z,29.55
2022-07-25T14:41:10.668Z,29.61
2022-07-25T14:43:39.785Z,29.42
2022-07-25T14:46:08.025Z,29.12
2022-07-25T14:48:37.367Z,29.35
2022-07-25T14:51:05.025Z,29.50
2022-07-25T14:53:32.353Z,29.15
2022-07-25T14:55:59.332Z,28.93
2022-07-25T14:58:26.003Z,29.14
2022-07-25T15:00:52.721Z,29.22
2022-07-25T15:03:19.384Z,29.51
2022-07-25T15:05:46.117Z,29.90
2022-07-25T15:08:14.216Z,30.14
2022-07-25T15:10:41.164Z,30.18
2022-07-25T15:13:29.972Z,30.20
2022-07-25T15:15:58.188Z,29.90
2022-07-25T15:18:25.050Z,29.85
2022-07-25T15:20:52.147Z,29.81
2022-07-25T15:23:20.975Z,29.81
2022-07-25T15:26:04.442Z,29.95
2022-07-25T15:28:36.586Z,29.93
2022-07-25T15:31:04.624Z,29.68
2022-07-25T15:33:31.433Z,29.80
2022-07-25T15:35:58.477Z,29.91
2022-07-25T15:38:25.223Z,30.19
2022-07-25T15:40:54.390Z,30.28
2022-07-25T15:43:21.189Z,30.30
2022-07-25T15:45:47.853Z,30.20
2022-07-25T15:48:16.182Z,29.91
2022-07-25T15:50:45.797Z,29.85
2022-07-25T15:53:12.893Z,29.81
2022-07-25T15:55:40.942Z,29.73
2022-07-25T15:58:09.583Z,29.72
2022-07-25T16:00:36.969Z,29.73
2022-07-25T16:03:04.087Z,29.78
2022-07-25T16:05:31.183Z,29.82
2022-07-25T16:08:01.034Z,29.61
2022-07-25T16:10:28.940Z,29.58
2022-07-25T16:12:55.628Z,29.33
2022-07-25T16:15:22.329Z,29.27
2022-07-25T16:17:50.575Z,29.27
2022-07-25T16:20:17.373Z,29.24
2022-07-25T16:22:44.110Z,29.26
2022-07-25T16:25:10.794Z,29.00
2022-07-25T16:27:37.963Z,28.94
2022-07-25T16:30:05.273Z,28.92
2022-07-25T16:32:31.897Z,28.95
2022-07-25T16:34:58.596Z,28.79
2022-07-25T16:37:25.283Z,28.79
2022-07-25T16:39:51.945Z,28.80
2022-07-25T16:42:20.280Z,28.12
2022-07-25T16:44:48.496Z,28.03
2022-07-25T16:47:15.131Z,27.65
2022-07-25T16:49:41.790Z,26.22
2022-07-25T16:52:08.405Z,24.38
2022-07-25T16:54:35.330Z,22.10
2022-07-25T16:57:02.030Z,21.55
2022-07-25T16:59:28.671Z,21.00
2022-07-25T17:01:55.523Z,21.05
2022-07-25T17:04:22.557Z,20.92
2022-07-25T17:06:49.505Z,21.14
2022-07-25T17:09:16.929Z,21.13
2022-07-25T17:11:43.752Z,20.92
2022-07-25T17:14:10.607Z,21.04
2022-07-25T17:16:37.835Z,21.43
2022-07-25T17:19:04.881Z,21.85
2022-07-25T17:21:31.908Z,22.21
2022-07-25T17:24:01.058Z,22.57
2022-07-25T17:26:27.869Z,22.93
2022-07-25T17:28:55.447Z,23.13
2022-07-25T17:31:22.416Z,22.95
2022-07-25T17:33:49.060Z,22.89
2022-07-25T17:36:15.782Z,23.10
2022-07-25T17:38:42.659Z,23.45
2022-07-25T17:41:09.365Z,23.55
2022-07-25T17:43:36.157Z,23.18
2022-07-25T17:46:02.856Z,22.77
2022-07-25T17:48:29.823Z,22.63
2022-07-25T17:50:56.618Z,22.74
2022-07-25T17:53:23.264Z,22.92
2022-07-25T17:55:49.950Z,23.19
2022-07-25T17:58:16.655Z,23.38
2022-07-25T18:00:43.292Z,23.42
2022-07-25T18:03:10.054Z,22.99
2022-07-25T18:05:37.171Z,22.27
2022-07-25T18:08:04.211Z,21.79
2022-07-25T18:10:30.973Z,21.71
2022-07-25T18:13:01.950Z,21.60
2022-07-25T18:15:28.724Z,21.47
2022-07-25T18:17:55.438Z,21.46
2022-07-25T18:20:22.252Z,21.45
2022-07-25T18:22:51.759Z,21.52
2022-07-25T18:25:18.455Z,21.43
2022-07-25T18:27:46.929Z,21.54
2022-07-25T18:30:15.895Z,21.53
2022-07-25T18:32:45.357Z,21.61
2022-07-25T18:35:12.113Z,21.14
2022-07-25T18:37:39.233Z,21.35
2022-07-25T18:40:07.109Z,21.52
2022-07-25T18:42:34.630Z,21.61
2022-07-25T18:45:01.437Z,21.42
2022-07-25T18:47:32.327Z,21.47
2022-07-25T18:50:02.374Z,21.41
2022-07-25T18:52:35.116Z,21.36
2022-07-25T18:55:04.475Z,21.51
2022-07-25T18:57:31.170Z,21.67
2022-07-25T19:00:02.596Z,21.91
2022-07-25T19:02:30.259Z,22.01
2022-07-25T19:04:56.991Z,21.91
2022-07-25T19:07:23.935Z,21.87
2022-07-25T19:09:53.843Z,21.81
2022-07-25T19:12:20.494Z,21.82
2022-07-25T19:14:47.213Z,21.90
2022-07-25T19:17:13.930Z,22.02
2022-07-25T19:19:41.292Z,22.10
2022-07-25T19:22:07.961Z,22.17
2022-07-25T19:24:37.820Z,22.20
2022-07-25T19:27:05.499Z,22.21
2022-07-25T19:29:32.190Z,22.32
2022-07-25T19:31:58.998Z,22.38
2022-07-25T19:34:25.956Z,22.45
2022-07-25T19:36:57.863Z,22.08
2022-07-25T19:39:25.573Z,21.79
2022-07-25T19:41:52.737Z,21.68
2022-07-25T19:44:19.892Z,21.76
2022-07-25T19:46:54.366Z,21.66
2022-07-25T19:49:21.034Z,21.48
2022-07-25T19:51:47.941Z,21.64
2022-07-25T19:54:14.543Z,21.70
2022-07-25T19:56:41.247Z,21.72
2022-07-25T19:59:08.017Z,21.81
2022-07-25T20:01:35.859Z,21.62
2022-07-25T20:04:05.228Z,21.67
2022-07-25T20:06:34.966Z,21.83
2022-07-25T20:09:02.416Z,22.09
2022-07-25T20:11:29.081Z,22.25
2022-07-25T20:13:55.915Z,22.38
2022-07-25T20:16:23.576Z,22.43
2022-07-25T20:18:51.118Z,22.32
2022-07-25T20:21:18.040Z,22.14
2022-07-25T20:23:48.073Z,21.95
2022-07-25T20:26:20.829Z,21.98
2022-07-25T20:28:55.264Z,22.02
2022-07-25T20:31:24.846Z,21.96
2022-07-25T20:33:57.814Z,22.00
2022-07-25T20:36:29.158Z,22.08
2022-07-25T20:39:01.134Z,21.97
2022-07-25T20:41:31.209Z,21.98
2022-07-25T20:44:06.401Z,21.91
2022-07-25T20:46:41.208Z,21.90
2022-07-25T20:49:13.526Z,21.67
2022-07-25T20:51:41.347Z,21.36
2022-07-25T20:54:10.197Z,21.23
2022-07-25T20:56:36.810Z,21.05
2022-07-25T20:59:06.248Z,20.79
2022-07-25T21:01:37.272Z,20.71
2022-07-25T21:04:07.855Z,20.80
2022-07-25T21:06:38.062Z,20.48
2022-07-25T21:09:06.614Z,20.23
2022-07-25T21:11:38.767Z,20.44
2022-07-25T21:14:08.619Z,20.18
2022-07-25T21:16:44.105Z,20.09
2022-07-25T21:19:16.201Z,20.09
2022-07-25T21:21:42.930Z,20.22
2022-07-25T21:24:11.922Z,19.91
2022-07-25T21:26:39.558Z,19.70
2022-07-25T21:29:09.819Z,19.61
2022-07-25T21:31:37.470Z,19.64
2022-07-25T21:34:04.214Z,19.73
2022-07-25T21:36:34.291Z,20.06
2022-07-25T21:39:01.064Z,20.01
2022-07-25T21:41:32.755Z,19.95
2022-07-25T21:43:59.718Z,20.02
2022-07-25T21:46:26.569Z,20.38
2022-07-25T21:49:12.113Z,20.39
2022-07-25T21:51:42.309Z,20.59
2022-07-25T21:54:11.801Z,20.28
2022-07-25T21:56:39.243Z,20.04
2022-07-25T21:59:06.899Z,20.28
2022-07-25T22:01:33.878Z,20.10
2022-07-25T22:04:00.628Z,19.82
2022-07-25T22:06:27.296Z,19.61
2022-07-25T22:08:54.816Z,19.53
2022-07-25T22:11:38.562Z,19.34
2022-07-25T22:14:08.879Z,19.24
2022-07-25T22:16:36.807Z,19.19
2022-07-25T22:19:04.502Z,18.69
2022-07-25T22:21:31.378Z,19.10
2022-07-25T22:23:57.985Z,19.00
2022-07-25T22:26:24.963Z,18.81
2022-07-25T22:28:51.604Z,18.84
2022-07-25T22:31:18.341Z,18.66
2022-07-25T22:33:45.086Z,18.94
2022-07-25T22:36:11.716Z,18.96
2022-07-25T22:38:38.524Z,18.76
2022-07-25T22:41:05.257Z,18.52
2022-07-25T22:43:53.162Z,18.66
2022-07-25T22:46:19.038Z,18.49
2022-07-25T22:48:45.703Z,18.53
2022-07-25T22:51:12.381Z,18.27
2022-07-25T22:53:39.087Z,18.37
2022-07-25T22:56:05.951Z,18.52
2022-07-25T22:58:32.577Z,18.56
2022-07-25T23:00:59.223Z,18.58
2022-07-25T23:03:25.999Z,18.21
2022-07-25T23:05:58.192Z,18.28
2022-07-25T23:08:24.785Z,18.39
2022-07-25T23:10:51.497Z,18.21
2022-07-25T23:13:18.780Z,18.39
2022-07-25T23:15:50.083Z,18.33
2022-07-25T23:18:17.200Z,18.12
2022-07-25T23:20:43.833Z,18.06
2022-07-25T23:23:10.499Z,17.92
2022-07-25T23:25:37.086Z,18.14
2022-07-25T23:28:03.785Z,18.00
2022-07-25T23:30:30.398Z,18.03
2022-07-25T23:32:57.187Z,18.01
2022-07-25T23:35:24.260Z,17.92
2022-07-25T23:37:50.877Z,17.85
2022-07-25T23:40:17.521Z,17.63
2022-07-25T23:42:44.207Z,17.70
2022-07-25T23:45:11.646Z,17.80
2022-07-25T23:47:39.720Z,17.52
2022-07-25T23:50:09.582Z,17.54
2022-07-25T23:52:36.217Z,17.61
2022-07-25T23:55:03.079Z,17.57
2022-07-25T23:57:29.740Z,17.67
2022-07-25T23:59:56.501Z,17.88
